createdAt,value
2022-08-30T00:02:01.779Z,96654.84
2022-08-30T00:04:28.156Z,96647.03
2022-08-30T00:06:54.590Z,96644.78
2022-08-30T00:09:20.927Z,96651.38
2022-08-30T00:14:13.614Z,96649.09
2022-08-30T00:16:39.966Z,96650.72
2022-08-30T00:21:32.717Z,96653.63
2022-08-30T00:23:59.065Z,96647.88
2022-08-30T00:26:25.438Z,96657.69
2022-08-30T00:28:51.831Z,96650.28
2022-08-30T00:31:18.477Z,96654.63
2022-08-30T00:33:44.943Z,96652.75
2022-08-30T00:36:11.525Z,96650.31
2022-08-30T00:38:37.862Z,96655.03
2022-08-30T00:41:04.281Z,96642.94
2022-08-30T00:43:34.034Z,96647.88
2022-08-30T00:46:04.458Z,96645.19
2022-08-30T00:48:32.256Z,96643.34
2022-08-30T00:51:03.474Z,96631.41
2022-08-30T00:53:37.305Z,96631.41
2022-08-30T00:56:05.009Z,96631.59
2022-08-30T00:58:37.015Z,96630.19
2022-08-30T01:01:05.756Z,96650.31
2022-08-30T01:03:33.345Z,96637.56
2022-08-30T01:06:00.808Z,96639.66
2022-08-30T01:08:27.204Z,96638.56
2022-08-30T01:10:55.583Z,96643.53
2022-08-30T01:13:23.784Z,96639.44
2022-08-30T01:15:50.889Z,96644.56
2022-08-30T01:18:18.808Z,96642.53
2022-08-30T01:21:07.339Z,96640.03
2022-08-30T01:23:36.922Z,96643.34
2022-08-30T01:26:05.976Z,96645.19
2022-08-30T01:28:34.153Z,96643.09
2022-08-30T01:31:01.610Z,96642.91
2022-08-30T01:33:28.093Z,96643.72
2022-08-30T01:35:58.019Z,96647.00
2022-08-30T01:38:32.828Z,96650.31
2022-08-30T01:41:35.421Z,96647.66
2022-08-30T01:44:05.477Z,96645.78
2022-08-30T01:46:36.051Z,96643.13
2022-08-30T01:49:05.788Z,96647.44
2022-08-30T01:51:32.160Z,96652.53
2022-08-30T01:53:59.381Z,96652.53
2022-08-30T01:56:27.848Z,96638.78
2022-08-30T01:58:59.208Z,96646.16
2022-08-30T02:01:29.907Z,96643.69
2022-08-30T02:03:58.883Z,96651.94
2022-08-30T02:06:26.003Z,96646.59
2022-08-30T02:08:52.612Z,96649.03
2022-08-30T02:11:19.122Z,96644.72
2022-08-30T02:13:46.193Z,96647.19
2022-08-30T02:16:16.477Z,96650.06
2022-08-30T02:18:43.373Z,96639.97
2022-08-30T02:21:10.300Z,96646.69
2022-08-30T02:23:37.089Z,96641.94
2022-08-30T02:26:04.435Z,96641.13
2022-08-30T02:28:30.876Z,96643.31
2022-08-30T02:30:57.567Z,96637.38
2022-08-30T02:33:24.017Z,96642.34
2022-08-30T02:35:50.416Z,96643.97
2022-08-30T02:38:20.046Z,96645.19
2022-08-30T02:40:46.733Z,96644.84
2022-08-30T02:43:13.198Z,96637.81
2022-08-30T02:45:39.664Z,96632.88
2022-08-30T02:48:06.098Z,96623.84
2022-08-30T02:50:32.625Z,96625.03
2022-08-30T02:52:59.014Z,96634.69
2022-08-30T02:55:25.486Z,96627.91
2022-08-30T02:57:51.891Z,96616.84
2022-08-30T03:00:20.595Z,96626.66
2022-08-30T03:02:47.125Z,96618.00
2022-08-30T03:05:14.765Z,96627.84
2022-08-30T03:07:41.956Z,96624.94
2022-08-30T03:10:09.217Z,96626.25
2022-08-30T03:12:35.928Z,96629.50
2022-08-30T03:15:02.438Z,96624.31
2022-08-30T03:17:31.667Z,96615.66
2022-08-30T03:20:00.279Z,96620.22
2022-08-30T03:22:26.660Z,96615.34
2022-08-30T03:24:53.015Z,96621.91
2022-08-30T03:27:19.343Z,96612.88
2022-08-30T03:29:45.693Z,96620.69
2022-08-30T03:32:12.058Z,96611.53
2022-08-30T03:34:38.405Z,96608.25
2022-08-30T03:37:04.831Z,96612.38
2022-08-30T03:39:31.838Z,96607.13
2022-08-30T03:41:58.189Z,96614.53
2022-08-30T03:44:25.754Z,96616.56
2022-08-30T03:46:52.647Z,96610.16
2022-08-30T03:49:19.658Z,96613.66
2022-08-30T03:51:47.317Z,96615.28
2022-08-30T03:54:14.563Z,96617.81
2022-08-30T03:56:41.007Z,96614.53
2022-08-30T03:59:07.349Z,96612.94
2022-08-30T04:01:33.957Z,96615.78
2022-08-30T04:04:00.363Z,96620.09
2022-08-30T04:06:28.356Z,96614.34
2022-08-30T04:08:55.042Z,96616.19
2022-08-30T04:11:21.493Z,96613.91
2022-08-30T04:13:49.610Z,96623.78
2022-08-30T04:16:17.175Z,96619.69
2022-08-30T04:18:43.593Z,96615.72
2022-08-30T04:21:13.987Z,96620.63
2022-08-30T04:23:40.630Z,96619.44
2022-08-30T04:26:07.074Z,96624.19
2022-08-30T04:28:35.116Z,96624.41
2022-08-30T04:31:11.719Z,96631.38
2022-08-30T04:33:38.661Z,96627.63
2022-08-30T04:36:07.232Z,96635.53
2022-08-30T04:38:35.483Z,96634.97
2022-08-30T04:41:02.473Z,96633.38
2022-08-30T04:43:29.031Z,96629.66
2022-08-30T04:45:57.838Z,96635.06
2022-08-30T04:48:24.197Z,96637.66
2022-08-30T04:50:50.749Z,96651.81
2022-08-30T04:53:17.335Z,96656.16
2022-08-30T04:55:44.373Z,96660.69
2022-08-30T04:58:11.110Z,96659.66
2022-08-30T05:00:37.690Z,96668.63
2022-08-30T05:03:04.579Z,96666.22
2022-08-30T05:05:39.940Z,96664.56
2022-08-30T05:08:11.877Z,96670.19
2022-08-30T05:10:44.175Z,96671.25
2022-08-30T05:13:11.343Z,96685.00
2022-08-30T05:15:39.713Z,96668.56
2022-08-30T05:18:07.814Z,96681.91
2022-08-30T05:20:38.835Z,96680.84
2022-08-30T05:23:06.085Z,96680.13
2022-08-30T05:25:36.255Z,96684.25
2022-08-30T05:28:02.939Z,96682.34
2022-08-30T05:30:33.231Z,96680.75
2022-08-30T05:32:59.891Z,96685.16
2022-08-30T05:35:26.857Z,96690.38
2022-08-30T05:37:53.737Z,96686.59
2022-08-30T05:40:20.391Z,96688.41
2022-08-30T05:42:47.234Z,96680.00
2022-08-30T05:45:15.127Z,96683.16
2022-08-30T05:47:41.708Z,96682.38
2022-08-30T05:50:08.862Z,96675.16
2022-08-30T05:52:37.224Z,96678.25
2022-08-30T05:55:04.771Z,96682.78
2022-08-30T05:57:35.794Z,96682.81
2022-08-30T06:00:06.247Z,96679.13
2022-08-30T06:02:32.997Z,96682.84
2022-08-30T06:04:59.373Z,96680.03
2022-08-30T06:07:26.544Z,96684.53
2022-08-30T06:09:52.886Z,96683.31
2022-08-30T06:12:19.290Z,96680.03
2022-08-30T06:14:45.693Z,96678.56
2022-08-30T06:17:12.213Z,96674.69
2022-08-30T06:19:38.891Z,96676.94
2022-08-30T06:22:05.323Z,96675.38
2022-08-30T06:24:55.958Z,96673.78
2022-08-30T06:27:18.207Z,96680.28
2022-08-30T06:29:45.078Z,96675.00
2022-08-30T06:32:11.407Z,96677.06
2022-08-30T06:34:37.737Z,96678.53
2022-08-30T06:37:04.149Z,96670.69
2022-08-30T06:39:30.532Z,96675.06
2022-08-30T06:41:56.866Z,96668.19
2022-08-30T06:44:23.233Z,96676.00
2022-08-30T06:46:49.865Z,96675.81
2022-08-30T06:49:19.146Z,96673.97
2022-08-30T06:51:45.523Z,96678.09
2022-08-30T06:54:12.806Z,96675.00
2022-08-30T06:56:55.318Z,96675.59
2022-08-30T06:59:23.929Z,96667.34
2022-08-30T07:01:50.500Z,96678.94
2022-08-30T07:04:17.599Z,96679.00
2022-08-30T07:06:44.007Z,96675.53
2022-08-30T07:09:10.541Z,96668.75
2022-08-30T07:11:37.526Z,96671.25
2022-08-30T07:14:05.426Z,96662.56
2022-08-30T07:16:32.901Z,96657.34
2022-08-30T07:19:00.373Z,96659.22
2022-08-30T07:21:32.462Z,96659.09
2022-08-30T07:23:59.749Z,96659.31
2022-08-30T07:26:38.754Z,96657.28
2022-08-30T07:29:05.902Z,96651.13
2022-08-30T07:31:34.373Z,96652.53
2022-08-30T07:34:00.716Z,96644.56
2022-08-30T07:36:27.139Z,96644.16
2022-08-30T07:38:54.405Z,96642.09
2022-08-30T07:41:27.732Z,96654.44
2022-08-30T07:43:54.829Z,96656.28
2022-08-30T07:46:22.504Z,96658.13
2022-08-30T07:48:50.038Z,96658.16
2022-08-30T07:51:19.399Z,96651.56
2022-08-30T07:53:46.380Z,96654.84
2022-08-30T07:56:13.202Z,96652.78
2022-08-30T07:58:39.698Z,96649.31
2022-08-30T08:01:08.485Z,96654.44
2022-08-30T08:03:35.267Z,96656.69
2022-08-30T08:06:06.372Z,96658.13
2022-08-30T08:08:33.724Z,96665.09
2022-08-30T08:11:10.163Z,96669.84
2022-08-30T08:13:53.063Z,96670.84
2022-08-30T08:16:25.425Z,96671.00
2022-08-30T08:18:53.318Z,96659.75
2022-08-30T08:21:22.259Z,96672.09
2022-08-30T08:23:48.927Z,96668.56
2022-08-30T08:26:15.434Z,96673.28
2022-08-30T08:28:42.755Z,96668.31
2022-08-30T08:31:22.084Z,96667.91
2022-08-30T08:33:52.093Z,96660.81
2022-08-30T08:36:18.533Z,96651.72
2022-08-30T08:38:45.138Z,96648.53
2022-08-30T08:41:25.570Z,96649.94
2022-08-30T08:43:52.208Z,96648.69
2022-08-30T08:46:45.473Z,96651.53
2022-08-30T08:49:12.459Z,96657.25
2022-08-30T08:51:59.382Z,96653.31
2022-08-30T08:54:39.031Z,96647.41
2022-08-30T08:57:05.904Z,96643.78
2022-08-30T08:59:32.439Z,96648.53
2022-08-30T09:02:03.191Z,96660.22
2022-08-30T09:04:36.662Z,96654.03
2022-08-30T09:07:08.555Z,96647.03
2022-08-30T09:09:38.642Z,96652.00
2022-08-30T09:12:08.129Z,96653.66
2022-08-30T09:14:51.227Z,96653.78
2022-08-30T09:17:22.712Z,96658.94
2022-08-30T09:19:51.923Z,96650.13
2022-08-30T09:22:38.338Z,96649.69
2022-08-30T09:25:06.719Z,96660.69
2022-08-30T09:27:42.324Z,96654.38
2022-08-30T09:30:23.220Z,96653.91
2022-08-30T09:32:57.325Z,96650.59
2022-08-30T09:35:36.098Z,96645.31
2022-08-30T09:38:09.118Z,96638.38
2022-08-30T09:40:42.095Z,96639.81
2022-08-30T09:43:19.218Z,96627.97
2022-08-30T09:46:01.181Z,96631.31
2022-08-30T09:48:33.658Z,96620.06
2022-08-30T09:51:11.499Z,96624.59
2022-08-30T09:54:07.190Z,96627.19
2022-08-30T09:56:39.449Z,96623.50
2022-08-30T09:59:05.813Z,96624.75
2022-08-30T10:01:42.917Z,96620.97
2022-08-30T10:04:25.550Z,96625.03
2022-08-30T10:07:07.152Z,96627.06
2022-08-30T10:09:43.288Z,96619.56
2022-08-30T10:12:25.528Z,96621.44
2022-08-30T10:15:25.643Z,96621.13
2022-08-30T10:18:07.397Z,96622.25
2022-08-30T10:20:47.634Z,96612.25
2022-08-30T10:23:21.199Z,96612.78
2022-08-30T10:25:54.198Z,96606.09
2022-08-30T10:28:25.240Z,96609.44
2022-08-30T10:31:02.546Z,96604.28
2022-08-30T10:33:42.487Z,96601.00
2022-08-30T10:36:11.541Z,96598.25
2022-08-30T10:38:40.297Z,96602.50
2022-08-30T10:41:26.863Z,96599.38
2022-08-30T10:44:00.993Z,96597.09
2022-08-30T10:46:27.277Z,96594.75
2022-08-30T10:48:56.381Z,96594.00
2022-08-30T10:51:35.833Z,96587.53
2022-08-30T10:54:12.340Z,96595.00
2022-08-30T10:56:47.644Z,96594.53
2022-08-30T10:59:17.472Z,96583.25
2022-08-30T11:02:03.498Z,96581.41
2022-08-30T11:04:45.405Z,96590.06
2022-08-30T11:07:26.958Z,96585.25
2022-08-30T11:10:04.101Z,96576.03
2022-08-30T11:12:53.083Z,96580.72
2022-08-30T11:15:24.085Z,96579.28
2022-08-30T11:17:58.822Z,96577.31
2022-08-30T11:20:48.904Z,96572.97
2022-08-30T11:23:18.337Z,96571.22
2022-08-30T11:25:53.520Z,96573.50
2022-08-30T11:28:36.651Z,96573.16
2022-08-30T11:31:29.401Z,96565.28
2022-08-30T11:33:59.434Z,96566.13
2022-08-30T11:36:37.383Z,96566.97
2022-08-30T11:39:07.543Z,96571.63
2022-08-30T11:41:42.590Z,96566.72
2022-08-30T11:44:21.633Z,96566.47
2022-08-30T11:46:50.046Z,96557.81
2022-08-30T11:49:19.435Z,96567.06
2022-08-30T11:52:28.444Z,96560.13
2022-08-30T11:55:23.156Z,96559.19
2022-08-30T11:57:58.873Z,96550.97
2022-08-30T12:00:39.589Z,96553.72
2022-08-30T12:03:16.289Z,96546.59
2022-08-30T12:05:42.775Z,96545.69
2022-08-30T12:08:09.412Z,96544.56
2022-08-30T12:10:41.344Z,96542.75
2022-08-30T12:13:08.715Z,96542.13
2022-08-30T12:15:57.975Z,96539.81
2022-08-30T12:18:32.105Z,96536.97
2022-08-30T12:21:20.121Z,96534.91
2022-08-30T12:24:04.064Z,96531.91
2022-08-30T12:26:34.168Z,96534.84
2022-08-30T12:29:12.219Z,96525.34
2022-08-30T12:31:46.476Z,96519.47
2022-08-30T12:34:43.362Z,96518.50
2022-08-30T12:37:24.953Z,96526.69
2022-08-30T12:40:22.772Z,96516.88
2022-08-30T12:42:53.845Z,96515.72
2022-08-30T12:45:25.813Z,96504.44
2022-08-30T12:48:07.303Z,96513.63
2022-08-30T12:50:44.719Z,96512.31
2022-08-30T12:53:14.271Z,96501.34
2022-08-30T12:56:12.280Z,96492.78
2022-08-30T12:58:47.632Z,96491.63
2022-08-30T13:01:28.501Z,96491.31
2022-08-30T13:04:13.685Z,96490.75
2022-08-30T13:06:56.195Z,96479.09
2022-08-30T13:09:32.382Z,96481.72
2022-08-30T13:12:05.658Z,96475.69
2022-08-30T13:14:35.181Z,96480.38
2022-08-30T13:17:19.034Z,96481.34
2022-08-30T13:20:07.042Z,96480.44
2022-08-30T13:22:42.793Z,96478.06
2022-08-30T13:25:11.548Z,96467.31
2022-08-30T13:27:40.151Z,96460.69
2022-08-30T13:30:14.630Z,96454.00
2022-08-30T13:32:41.334Z,96446.03
2022-08-30T13:35:08.728Z,96448.28
2022-08-30T13:37:51.839Z,96440.03
2022-08-30T13:40:20.477Z,96435.81
2022-08-30T13:42:47.330Z,96431.06
2022-08-30T13:48:01.634Z,96422.94
2022-08-30T13:50:28.012Z,96414.81
2022-08-30T13:52:54.350Z,96412.13
2022-08-30T13:55:21.233Z,96414.22
2022-08-30T13:57:56.027Z,96416.94
2022-08-30T14:00:24.830Z,96422.59
2022-08-30T14:02:57.693Z,96423.44
2022-08-30T14:05:48.236Z,96416.63
2022-08-30T14:11:12.485Z,96431.56
2022-08-30T14:14:14.582Z,96428.41
2022-08-30T14:16:28.031Z,96430.09
2022-08-30T14:18:55.058Z,96429.97
2022-08-30T14:21:24.661Z,96428.38
2022-08-30T14:23:52.585Z,96424.16
2022-08-30T14:26:24.751Z,96421.22
2022-08-30T14:28:53.275Z,96429.94
2022-08-30T14:31:20.263Z,96425.31
2022-08-30T14:33:47.219Z,96425.00
2022-08-30T14:36:15.886Z,96422.81
2022-08-30T14:38:42.853Z,96423.59
2022-08-30T14:41:10.595Z,96420.38
2022-08-30T14:43:37.708Z,96419.50
2022-08-30T14:46:05.639Z,96419.81
2022-08-30T14:48:32.073Z,96415.88
2022-08-30T14:50:58.511Z,96415.63
2022-08-30T14:53:25.119Z,96410.00
2022-08-30T14:55:51.491Z,96407.56
2022-08-30T14:58:18.159Z,96397.81
2022-08-30T15:00:53.712Z,96401.66
2022-08-30T15:03:20.107Z,96391.91
2022-08-30T15:05:52.966Z,96390.66
2022-08-30T15:08:20.062Z,96377.97
2022-08-30T15:10:47.367Z,96378.19
2022-08-30T15:13:14.107Z,96376.09
2022-08-30T15:15:42.600Z,96375.22
2022-08-30T15:18:09.735Z,96384.06
2022-08-30T15:20:36.505Z,96377.25
2022-08-30T15:23:02.903Z,96374.59
2022-08-30T15:25:31.481Z,96368.91
2022-08-30T15:27:57.896Z,96362.69
2022-08-30T15:30:24.248Z,96353.22
2022-08-30T15:32:50.695Z,96362.25
2022-08-30T15:35:17.113Z,96356.25
2022-08-30T15:37:43.449Z,96351.97
2022-08-30T15:40:10.845Z,96352.59
2022-08-30T15:42:37.443Z,96359.22
2022-08-30T15:45:04.572Z,96349.22
2022-08-30T15:47:32.824Z,96349.91
2022-08-30T15:50:02.931Z,96350.19
2022-08-30T15:52:30.359Z,96354.03
2022-08-30T15:54:56.817Z,96347.53
2022-08-30T15:57:23.790Z,96348.00
2022-08-30T15:59:50.306Z,96342.50
2022-08-30T16:02:17.438Z,96338.56
2022-08-30T16:04:44.629Z,96328.91
2022-08-30T16:07:12.886Z,96335.66
2022-08-30T16:09:40.293Z,96335.41
2022-08-30T16:12:07.681Z,96333.00
2022-08-30T16:14:36.668Z,96324.25
2022-08-30T16:17:03.829Z,96334.69
2022-08-30T16:19:31.847Z,96341.66
2022-08-30T16:21:58.305Z,96353.50
2022-08-30T16:24:25.801Z,96362.03
2022-08-30T16:26:52.771Z,96356.00
2022-08-30T16:29:19.245Z,96366.16
2022-08-30T16:31:47.374Z,96373.03
2022-08-30T16:34:16.287Z,96367.09
2022-08-30T16:36:43.141Z,96366.59
2022-08-30T16:39:12.668Z,96361.94
2022-08-30T16:41:39.186Z,96363.66
2022-08-30T16:44:06.274Z,96358.41
2022-08-30T16:46:33.679Z,96364.00
2022-08-30T16:49:02.143Z,96366.47
2022-08-30T16:51:30.676Z,96363.56
2022-08-30T16:54:00.148Z,96357.94
2022-08-30T16:56:29.704Z,96358.03
2022-08-30T16:59:02.095Z,96359.94
2022-08-30T17:01:31.963Z,96367.03
2022-08-30T17:03:58.953Z,96350.78
2022-08-30T17:06:25.864Z,96349.13
2022-08-30T17:08:55.768Z,96358.38
2022-08-30T17:11:22.678Z,96368.38
2022-08-30T17:13:49.058Z,96366.72
2022-08-30T17:16:17.627Z,96358.56
2022-08-30T17:18:50.065Z,96366.41
2022-08-30T17:21:16.411Z,96369.91
2022-08-30T17:23:44.901Z,96376.13
2022-08-30T17:26:11.534Z,96379.09
2022-08-30T17:28:40.733Z,96380.41
2022-08-30T17:31:09.355Z,96389.88
2022-08-30T17:33:39.101Z,96393.09
2022-08-30T17:36:09.309Z,96402.91
2022-08-30T17:38:36.940Z,96409.25
2022-08-30T17:41:09.196Z,96403.34
2022-08-30T17:43:37.555Z,96410.38
2022-08-30T17:46:09.973Z,96408.94
2022-08-30T17:48:38.013Z,96413.41
2022-08-30T17:51:05.541Z,96415.66
2022-08-30T17:53:32.625Z,96410.47
2022-08-30T17:55:59.177Z,96420.28
2022-08-30T17:58:26.634Z,96422.19
2022-08-30T18:00:55.944Z,96424.50
2022-08-30T18:03:22.427Z,96426.09
2022-08-30T18:05:49.709Z,96431.19
2022-08-30T18:08:16.240Z,96432.91
2022-08-30T18:10:42.791Z,96429.66
2022-08-30T18:13:09.384Z,96441.72
2022-08-30T18:15:35.728Z,96438.00
2022-08-30T18:18:02.248Z,96441.56
2022-08-30T18:20:32.323Z,96453.22
2022-08-30T18:22:58.754Z,96467.81
2022-08-30T18:25:25.097Z,96484.22
2022-08-30T18:27:58.067Z,96476.50
2022-08-30T18:30:33.197Z,96490.09
2022-08-30T18:33:00.568Z,96473.47
2022-08-30T18:35:27.294Z,96471.31
2022-08-30T18:37:53.853Z,96482.69
2022-08-30T18:40:20.581Z,96487.91
2022-08-30T18:42:47.568Z,96492.31
2022-08-30T18:45:15.265Z,96514.16
2022-08-30T18:47:42.262Z,96505.00
2022-08-30T18:50:08.902Z,96504.00
2022-08-30T18:52:35.956Z,96516.91
2022-08-30T18:55:02.577Z,96524.50
2022-08-30T18:57:28.997Z,96518.63
2022-08-30T18:59:57.641Z,96536.56
2022-08-30T19:02:27.564Z,96538.19
2022-08-30T19:04:54.449Z,96549.09
2022-08-30T19:07:21.449Z,96553.31
2022-08-30T19:09:53.668Z,96556.97
2022-08-30T19:12:20.166Z,96554.09
2022-08-30T19:14:47.475Z,96561.00
2022-08-30T19:17:14.039Z,96563.88
2022-08-30T19:19:48.698Z,96577.53
2022-08-30T19:22:20.672Z,96578.16
2022-08-30T19:24:49.767Z,96592.34
2022-08-30T19:27:17.753Z,96593.59
2022-08-30T19:29:44.650Z,96610.03
2022-08-30T19:32:11.907Z,96622.78
2022-08-30T19:34:39.575Z,96628.72
2022-08-30T19:37:05.968Z,96638.78
2022-08-30T19:39:32.814Z,96646.59
2022-08-30T19:41:59.220Z,96646.41
2022-08-30T19:44:26.658Z,96643.41
2022-08-30T19:46:53.391Z,96649.47
2022-08-30T19:49:20.156Z,96648.91
2022-08-30T19:51:48.018Z,96651.38
2022-08-30T19:54:15.170Z,96658.53
2022-08-30T19:56:43.729Z,96657.34
2022-08-30T19:59:10.224Z,96654.88
2022-08-30T20:01:37.132Z,96657.88
2022-08-30T20:04:03.721Z,96657.06
2022-08-30T20:06:31.510Z,96673.28
2022-08-30T20:08:59.823Z,96669.91
2022-08-30T20:11:27.544Z,96677.81
2022-08-30T20:13:53.952Z,96682.38
2022-08-30T20:16:20.280Z,96690.94
2022-08-30T20:18:49.513Z,96684.59
2022-08-30T20:21:16.119Z,96680.28
2022-08-30T20:23:43.410Z,96681.97
2022-08-30T20:26:12.563Z,96703.09
2022-08-30T20:28:42.382Z,96702.28
2022-08-30T20:31:10.721Z,96698.91
2022-08-30T20:33:38.688Z,96697.31
2022-08-30T20:36:07.270Z,96685.44
2022-08-30T20:38:33.868Z,96685.88
2022-08-30T20:41:02.490Z,96679.44
2022-08-30T20:43:30.304Z,96672.38
2022-08-30T20:45:56.803Z,96671.91
2022-08-30T20:48:26.939Z,96657.63
2022-08-30T20:50:53.273Z,96645.56
2022-08-30T20:53:19.604Z,96645.25
2022-08-30T20:55:47.355Z,96635.41
2022-08-30T20:58:15.121Z,96638.34
2022-08-30T21:00:45.585Z,96634.56
2022-08-30T21:03:26.084Z,96643.81
2022-08-30T21:05:55.208Z,96637.25
2022-08-30T21:08:21.704Z,96628.63
2022-08-30T21:10:48.091Z,96635.53
2022-08-30T21:13:14.853Z,96636.59
2022-08-30T21:15:45.612Z,96642.59
2022-08-30T21:18:14.154Z,96646.03
2022-08-30T21:20:41.086Z,96649.69
2022-08-30T21:23:07.437Z,96637.00
2022-08-30T21:25:34.081Z,96629.66
2022-08-30T21:28:00.458Z,96628.97
2022-08-30T21:30:26.986Z,96633.66
2022-08-30T21:32:53.429Z,96628.09
2022-08-30T21:35:38.295Z,96633.22
2022-08-30T21:38:07.259Z,96634.50
2022-08-30T21:40:33.664Z,96635.94
2022-08-30T21:43:05.054Z,96630.72
2022-08-30T21:45:32.127Z,96638.59
2022-08-30T21:47:58.673Z,96643.31
2022-08-30T21:50:25.191Z,96650.53
2022-08-30T21:52:51.923Z,96662.69
2022-08-30T21:55:18.923Z,96662.69
2022-08-30T21:57:45.268Z,96659.66
2022-08-30T22:00:18.587Z,96659.66
2022-08-30T22:02:45.294Z,96654.78
2022-08-30T22:05:15.809Z,96649.88
2022-08-30T22:07:42.237Z,96649.44
2022-08-30T22:10:10.979Z,96648.47
2022-08-30T22:12:38.341Z,96647.00
2022-08-30T22:15:08.417Z,96649.50
2022-08-30T22:17:34.777Z,96651.53
2022-08-30T22:20:01.130Z,96645.97
2022-08-30T22:22:27.475Z,96646.59
2022-08-30T22:24:53.824Z,96644.53
2022-08-30T22:27:20.180Z,96640.41
2022-08-30T22:29:47.171Z,96644.06
2022-08-30T22:32:13.791Z,96646.31
2022-08-30T22:34:40.447Z,96636.69
2022-08-30T22:37:07.796Z,96630.56
2022-08-30T22:39:34.377Z,96625.75
2022-08-30T22:42:00.721Z,96630.28
2022-08-30T22:44:27.213Z,96636.28
2022-08-30T22:46:53.610Z,96624.25
2022-08-30T22:49:20.353Z,96616.00
2022-08-30T22:51:46.785Z,96629.44
2022-08-30T22:54:13.127Z,96629.91
2022-08-30T22:56:40.194Z,96625.34
2022-08-30T22:59:06.683Z,96616.31
2022-08-30T23:01:39.834Z,96614.66
2022-08-30T23:04:07.734Z,96614.34
2022-08-30T23:06:34.328Z,96616.63
2022-08-30T23:09:00.733Z,96606.16
2022-08-30T23:11:27.779Z,96606.19
2022-08-30T23:13:55.811Z,96611.53
2022-08-30T23:16:22.920Z,96613.19
2022-08-30T23:18:49.893Z,96610.50
2022-08-30T23:21:22.737Z,96613.22
2022-08-30T23:24:10.357Z,96618.19
2022-08-30T23:26:56.676Z,96606.91
2022-08-30T23:29:42.449Z,96605.69
2022-08-30T23:32:27.893Z,96610.81
2022-08-30T23:35:12.714Z,96611.22
2022-08-30T23:37:58.095Z,96595.81
2022-08-30T23:40:43.246Z,96601.72
2022-08-30T23:43:28.829Z,96605.00
2022-08-30T23:46:19.001Z,96608.25
2022-08-30T23:49:04.662Z,96603.22
2022-08-30T23:51:49.616Z,96608.97
2022-08-30T23:54:35.023Z,96606.25
2022-08-30T23:57:19.779Z,96604.09
